createdAt,value
2018-07-24T00:02:22.856Z,17.70
2018-07-24T00:04:51.796Z,17.80
2018-07-24T00:07:20.618Z,17.80
2018-07-24T00:09:49.444Z,17.70
2018-07-24T00:12:18.289Z,17.70
2018-07-24T00:14:47.088Z,17.70
2018-07-24T00:17:15.910Z,17.70
2018-07-24T00:19:44.699Z,17.60
2018-07-24T00:22:13.490Z,17.60
2018-07-24T00:24:42.285Z,17.60
2018-07-24T00:27:11.051Z,17.60
2018-07-24T00:29:39.834Z,17.50
2018-07-24T00:32:08.663Z,17.60
2018-07-24T00:34:37.439Z,17.50
2018-07-24T00:37:06.397Z,17.50
2018-07-24T00:39:35.166Z,17.50
2018-07-24T00:42:04.019Z,17.50
2018-07-24T00:44:32.789Z,17.70
2018-07-24T00:47:01.593Z,17.60
2018-07-24T00:49:30.361Z,17.70
2018-07-24T00:51:59.176Z,17.70
2018-07-24T00:54:28.074Z,17.80
2018-07-24T00:56:56.842Z,17.70
2018-07-24T00:59:25.635Z,17.70
2018-07-24T01:01:54.408Z,17.70
2018-07-24T01:04:23.152Z,17.70
2018-07-24T01:06:51.933Z,17.70
2018-07-24T01:09:20.707Z,17.70
2018-07-24T01:11:49.470Z,17.70
2018-07-24T01:14:18.273Z,17.70
2018-07-24T01:16:47.133Z,17.60
2018-07-24T01:19:15.921Z,17.60
2018-07-24T01:21:44.760Z,17.60
2018-07-24T01:24:13.525Z,17.60
2018-07-24T01:26:42.312Z,17.60
2018-07-24T01:29:11.069Z,17.60
2018-07-24T01:31:39.871Z,17.50
2018-07-24T01:34:08.651Z,17.40
2018-07-24T01:36:37.418Z,17.40
2018-07-24T01:39:08.885Z,17.40
2018-07-24T01:41:37.636Z,17.40
2018-07-24T01:44:06.466Z,17.40
2018-07-24T01:46:35.217Z,17.30
2018-07-24T01:49:04.264Z,17.30
2018-07-24T01:51:33.145Z,17.30
2018-07-24T01:54:01.972Z,17.20
2018-07-24T01:56:30.912Z,17.10
2018-07-24T01:58:59.699Z,17.10
2018-07-24T02:04:31.518Z,17.00
2018-07-24T02:07:00.343Z,17.00
2018-07-24T02:09:29.112Z,17.00
2018-07-24T02:11:58.005Z,16.90
2018-07-24T02:14:26.866Z,16.90
2018-07-24T02:16:55.668Z,16.90
2018-07-24T02:19:24.447Z,16.80
2018-07-24T02:21:53.287Z,16.80
2018-07-24T02:24:22.195Z,16.80
2018-07-24T02:26:51.011Z,16.80
2018-07-24T02:29:19.965Z,16.80
2018-07-24T02:31:48.830Z,16.70
2018-07-24T02:34:17.575Z,16.80
2018-07-24T02:36:46.353Z,16.70
2018-07-24T02:39:15.193Z,16.70
2018-07-24T02:41:44.042Z,16.70
2018-07-24T02:44:12.862Z,16.70
2018-07-24T02:46:41.691Z,16.70
2018-07-24T02:49:10.439Z,16.70
2018-07-24T02:51:39.229Z,16.60
2018-07-24T02:54:08.004Z,16.70
2018-07-24T02:56:36.812Z,16.60
2018-07-24T02:59:06.098Z,16.60
2018-07-24T03:01:34.963Z,16.60
2018-07-24T03:04:03.846Z,16.60
2018-07-24T03:06:32.668Z,16.60
2018-07-24T03:09:01.422Z,16.60
2018-07-24T03:11:30.168Z,16.50
2018-07-24T03:13:58.970Z,16.50
2018-07-24T03:16:27.800Z,16.60
2018-07-24T03:18:56.609Z,16.60
2018-07-24T03:21:25.405Z,16.60
2018-07-24T03:23:54.232Z,16.60
2018-07-24T03:26:23.119Z,16.60
2018-07-24T03:28:51.881Z,16.60
2018-07-24T03:31:20.645Z,16.60
2018-07-24T03:33:49.392Z,16.60
2018-07-24T03:36:18.147Z,16.70
2018-07-24T03:38:46.963Z,16.70
2018-07-24T03:41:15.837Z,16.70
2018-07-24T03:43:44.615Z,16.70
2018-07-24T03:46:13.455Z,16.80
2018-07-24T03:48:42.245Z,16.90
2018-07-24T03:51:11.033Z,16.90
2018-07-24T03:53:39.826Z,16.90
2018-07-24T03:56:08.814Z,17.00
2018-07-24T03:58:37.758Z,17.10
2018-07-24T04:01:06.620Z,17.10
2018-07-24T04:03:35.419Z,17.20
2018-07-24T04:06:04.144Z,17.20
2018-07-24T04:08:32.938Z,17.30
2018-07-24T04:11:01.718Z,17.40
2018-07-24T04:13:30.567Z,17.50
2018-07-24T04:15:59.326Z,17.60
2018-07-24T04:18:32.741Z,17.70
2018-07-24T04:21:01.552Z,17.70
2018-07-24T04:23:30.392Z,17.90
2018-07-24T04:25:59.213Z,18.00
2018-07-24T04:28:28.113Z,18.10
2018-07-24T04:30:56.941Z,18.20
2018-07-24T04:33:25.699Z,18.30
2018-07-24T04:35:54.533Z,18.50
2018-07-24T04:38:23.284Z,18.60
2018-07-24T04:40:52.095Z,18.70
2018-07-24T04:43:20.860Z,18.80
2018-07-24T04:45:49.702Z,18.90
2018-07-24T04:48:18.494Z,19.00
2018-07-24T04:50:47.236Z,19.10
2018-07-24T04:53:16.054Z,19.30
2018-07-24T04:55:44.855Z,19.40
2018-07-24T04:58:13.698Z,19.40
2018-07-24T05:00:42.490Z,19.50
2018-07-24T05:03:11.359Z,19.50
2018-07-24T05:05:40.123Z,19.60
2018-07-24T05:08:08.960Z,19.70
2018-07-24T05:10:37.742Z,19.80
2018-07-24T05:13:06.635Z,19.90
2018-07-24T05:15:35.420Z,19.90
2018-07-24T05:18:04.263Z,20.00
2018-07-24T05:20:33.059Z,20.10
2018-07-24T05:23:01.803Z,20.00
2018-07-24T05:25:30.625Z,20.20
2018-07-24T05:27:59.454Z,20.20
2018-07-24T05:30:28.199Z,20.20
2018-07-24T05:32:56.990Z,20.20
2018-07-24T05:35:25.794Z,20.30
2018-07-24T05:37:54.576Z,20.30
2018-07-24T05:40:23.359Z,20.40
2018-07-24T05:42:52.386Z,20.50
2018-07-24T05:45:21.288Z,20.50
2018-07-24T05:47:50.100Z,20.50
2018-07-24T05:50:18.866Z,20.50
2018-07-24T05:52:47.626Z,20.60
2018-07-24T05:55:16.347Z,20.60
2018-07-24T05:57:45.228Z,20.60
2018-07-24T06:00:14.095Z,20.60
2018-07-24T06:02:43.040Z,20.60
2018-07-24T06:05:11.899Z,20.80
2018-07-24T06:07:40.713Z,20.90
2018-07-24T06:10:09.545Z,20.70
2018-07-24T06:12:38.325Z,20.90
2018-07-24T06:15:08.124Z,20.90
2018-07-24T06:17:36.977Z,20.70
2018-07-24T06:20:07.269Z,21.00
2018-07-24T06:22:36.066Z,21.10
2018-07-24T06:25:04.978Z,21.00
2018-07-24T06:27:33.936Z,21.00
2018-07-24T06:30:02.845Z,21.10
2018-07-24T06:32:31.761Z,21.10
2018-07-24T06:35:00.579Z,20.80
2018-07-24T06:37:29.430Z,21.00
2018-07-24T06:39:58.244Z,21.10
2018-07-24T06:42:27.057Z,21.00
2018-07-24T06:44:56.033Z,21.00
2018-07-24T06:47:24.883Z,21.10
2018-07-24T06:49:53.699Z,21.10
2018-07-24T06:52:22.550Z,20.90
2018-07-24T06:54:51.398Z,21.10
2018-07-24T06:57:20.287Z,21.20
2018-07-24T06:59:49.135Z,21.10
2018-07-24T07:02:18.016Z,21.10
2018-07-24T07:04:47.005Z,21.20
2018-07-24T07:07:15.799Z,21.10
2018-07-24T07:09:44.561Z,21.10
2018-07-24T07:12:13.533Z,21.10
2018-07-24T07:14:42.379Z,21.20
2018-07-24T07:17:11.292Z,21.30
2018-07-24T07:19:40.055Z,21.50
2018-07-24T07:22:08.899Z,21.60
2018-07-24T07:24:37.770Z,21.40
2018-07-24T07:27:06.648Z,21.50
2018-07-24T07:29:36.651Z,21.70
2018-07-24T07:32:05.537Z,21.80
2018-07-24T07:34:34.298Z,21.60
2018-07-24T07:37:03.075Z,21.20
2018-07-24T07:39:31.971Z,21.60
2018-07-24T07:42:00.885Z,21.60
2018-07-24T07:44:29.770Z,21.80
2018-07-24T07:46:58.510Z,22.00
2018-07-24T07:49:27.309Z,22.00
2018-07-24T07:51:56.431Z,22.20
2018-07-24T07:54:25.396Z,22.30
2018-07-24T07:56:54.265Z,22.50
2018-07-24T07:59:23.124Z,22.60
2018-07-24T08:01:52.089Z,22.70
2018-07-24T08:04:21.303Z,22.80
2018-07-24T08:06:50.145Z,23.10
2018-07-24T08:09:19.088Z,23.00
2018-07-24T08:11:47.961Z,22.80
2018-07-24T08:14:16.869Z,23.10
2018-07-24T08:16:45.689Z,23.20
2018-07-24T08:19:15.480Z,23.00
2018-07-24T08:21:44.334Z,22.90
2018-07-24T08:24:13.146Z,22.80
2018-07-24T08:26:42.103Z,22.50
2018-07-24T08:29:11.337Z,22.20
2018-07-24T08:31:40.318Z,22.20
2018-07-24T08:34:09.295Z,22.00
2018-07-24T08:36:38.292Z,22.10
2018-07-24T08:39:09.562Z,22.20
2018-07-24T08:41:38.425Z,22.20
2018-07-24T08:44:07.373Z,22.50
2018-07-24T08:46:36.168Z,22.80
2018-07-24T08:49:05.177Z,23.00
2018-07-24T08:51:34.062Z,23.10
2018-07-24T08:54:03.207Z,23.20
2018-07-24T08:56:31.947Z,23.00
2018-07-24T08:59:00.819Z,23.00
2018-07-24T09:01:29.775Z,23.10
2018-07-24T09:03:58.662Z,23.10
2018-07-24T09:06:27.531Z,22.90
2018-07-24T09:08:56.352Z,23.10
2018-07-24T09:11:25.136Z,22.30
2018-07-24T09:13:54.003Z,22.70
2018-07-24T09:16:22.847Z,22.80
2018-07-24T09:18:51.759Z,22.10
2018-07-24T09:21:20.659Z,22.30
2018-07-24T09:23:49.587Z,22.60
2018-07-24T09:26:19.050Z,23.10
2018-07-24T09:28:47.893Z,23.50
2018-07-24T09:31:16.817Z,23.70
2018-07-24T09:33:45.647Z,23.30
2018-07-24T09:36:14.418Z,22.90
2018-07-24T09:38:43.781Z,23.00
2018-07-24T09:41:12.721Z,23.00
2018-07-24T09:43:41.729Z,23.30
2018-07-24T09:46:10.673Z,23.50
2018-07-24T09:48:39.575Z,23.80
2018-07-24T09:51:08.511Z,23.80
2018-07-24T09:53:37.331Z,24.20
2018-07-24T09:56:06.133Z,24.70
2018-07-24T09:58:34.856Z,24.70
2018-07-24T10:01:08.963Z,25.00
2018-07-24T10:03:37.889Z,24.40
2018-07-24T10:06:06.765Z,24.40
2018-07-24T10:08:35.731Z,24.70
2018-07-24T10:11:04.770Z,24.80
2018-07-24T10:13:33.598Z,24.30
2018-07-24T10:16:02.491Z,24.70
2018-07-24T10:18:31.431Z,23.80
2018-07-24T10:21:00.435Z,24.00
2018-07-24T10:23:29.295Z,24.30
2018-07-24T10:25:58.187Z,24.60
2018-07-24T10:28:27.040Z,24.60
2018-07-24T10:30:55.884Z,23.80
2018-07-24T10:33:24.735Z,24.60
2018-07-24T10:35:53.608Z,24.60
2018-07-24T10:38:22.400Z,24.60
2018-07-24T10:40:51.261Z,25.10
2018-07-24T10:43:20.057Z,25.60
2018-07-24T10:45:49.485Z,24.90
2018-07-24T10:48:18.384Z,25.00
2018-07-24T10:50:47.225Z,24.00
2018-07-24T10:53:16.005Z,24.10
2018-07-24T10:55:44.842Z,24.40
2018-07-24T10:58:13.689Z,24.40
2018-07-24T11:00:42.610Z,25.00
2018-07-24T11:03:12.314Z,25.30
2018-07-24T11:05:41.214Z,25.30
2018-07-24T11:08:10.030Z,24.60
2018-07-24T11:10:38.854Z,24.50
2018-07-24T11:13:07.646Z,24.40
2018-07-24T11:15:36.502Z,23.80
2018-07-24T11:18:05.364Z,24.00
2018-07-24T11:20:34.248Z,23.80
2018-07-24T11:23:03.224Z,24.20
2018-07-24T11:25:32.004Z,24.40
2018-07-24T11:28:00.804Z,24.40
2018-07-24T11:30:29.692Z,24.60
2018-07-24T11:32:58.527Z,24.40
2018-07-24T11:35:27.457Z,24.60
2018-07-24T11:37:56.815Z,24.40
2018-07-24T11:40:25.763Z,24.20
2018-07-24T11:42:54.788Z,24.40
2018-07-24T11:45:23.705Z,24.50
2018-07-24T11:47:52.564Z,24.40
2018-07-24T11:50:21.351Z,24.20
2018-07-24T11:52:50.271Z,24.30
2018-07-24T11:55:19.395Z,24.00
2018-07-24T11:57:48.182Z,24.40
2018-07-24T12:00:17.055Z,24.60
2018-07-24T12:02:45.816Z,24.80
2018-07-24T12:05:14.575Z,24.90
2018-07-24T12:07:43.379Z,25.20
2018-07-24T12:10:12.198Z,24.40
2018-07-24T12:12:40.960Z,24.80
2018-07-24T12:15:09.838Z,24.90
2018-07-24T12:17:38.620Z,25.30
2018-07-24T12:20:07.488Z,25.80
2018-07-24T12:22:36.284Z,24.50
2018-07-24T12:25:05.238Z,25.10
2018-07-24T12:27:34.558Z,24.20
2018-07-24T12:30:03.440Z,23.90
2018-07-24T12:32:32.386Z,24.20
2018-07-24T12:35:01.213Z,25.00
2018-07-24T12:37:30.008Z,25.60
2018-07-24T12:39:58.871Z,26.20
2018-07-24T12:42:27.721Z,26.00
2018-07-24T12:44:56.583Z,26.00
2018-07-24T12:47:25.699Z,26.00
2018-07-24T12:49:54.500Z,25.90
2018-07-24T12:52:23.438Z,26.10
2018-07-24T12:54:52.231Z,26.20
2018-07-24T12:57:21.038Z,26.10
2018-07-24T12:59:50.080Z,26.90
2018-07-24T13:02:18.895Z,28.70
2018-07-24T13:04:47.799Z,30.30
2018-07-24T13:07:16.576Z,31.00
2018-07-24T13:09:45.380Z,30.80
2018-07-24T13:12:14.251Z,30.90
2018-07-24T13:14:43.067Z,33.30
2018-07-24T13:17:12.105Z,34.30
2018-07-24T13:19:40.953Z,33.60
2018-07-24T13:22:09.794Z,34.10
2018-07-24T13:24:38.622Z,33.20
2018-07-24T13:27:07.606Z,33.10
2018-07-24T13:29:36.448Z,35.10
2018-07-24T13:32:05.434Z,34.00
2018-07-24T13:34:34.274Z,35.20
2018-07-24T13:37:03.143Z,33.90
2018-07-24T13:39:31.965Z,36.00
2018-07-24T13:42:00.827Z,37.20
2018-07-24T13:44:29.603Z,38.20
2018-07-24T13:46:58.399Z,35.50
2018-07-24T13:49:27.227Z,36.50
2018-07-24T13:51:56.180Z,37.80
2018-07-24T13:54:25.013Z,38.50
2018-07-24T13:56:53.835Z,39.00
2018-07-24T13:59:22.671Z,37.80
2018-07-24T14:01:51.482Z,39.10
2018-07-24T14:04:20.264Z,39.80
2018-07-24T14:06:49.083Z,40.50
2018-07-24T14:09:17.896Z,40.80
2018-07-24T14:11:46.668Z,36.30
2018-07-24T14:14:15.474Z,37.10
2018-07-24T14:16:44.320Z,38.70
2018-07-24T14:19:13.109Z,39.50
2018-07-24T14:21:42.000Z,38.10
2018-07-24T14:24:10.880Z,38.60
2018-07-24T14:26:39.688Z,39.70
2018-07-24T14:29:08.561Z,38.80
2018-07-24T14:31:37.364Z,40.10
2018-07-24T14:34:06.170Z,39.40
2018-07-24T14:36:34.996Z,40.10
2018-07-24T14:39:04.145Z,40.10
2018-07-24T14:41:33.088Z,39.40
2018-07-24T14:44:01.980Z,39.60
2018-07-24T14:46:30.870Z,38.60
2018-07-24T14:48:59.756Z,36.60
2018-07-24T14:51:28.593Z,36.70
2018-07-24T14:53:57.566Z,34.40
2018-07-24T14:56:26.393Z,35.20
2018-07-24T14:58:55.194Z,35.90
2018-07-24T15:01:24.062Z,35.70
2018-07-24T15:03:52.996Z,36.50
2018-07-24T15:06:21.894Z,36.30
2018-07-24T15:08:50.716Z,36.30
2018-07-24T15:11:19.578Z,36.00
2018-07-24T15:13:48.414Z,36.50
2018-07-24T15:16:17.321Z,35.30
2018-07-24T15:18:46.231Z,34.30
2018-07-24T15:21:15.390Z,34.60
2018-07-24T15:23:44.203Z,35.40
2018-07-24T15:26:13.019Z,35.40
2018-07-24T15:28:41.913Z,32.80
2018-07-24T15:31:10.702Z,33.10
2018-07-24T15:33:39.583Z,33.10
2018-07-24T15:36:08.421Z,34.10
2018-07-24T15:38:41.481Z,34.90
2018-07-24T15:41:10.440Z,35.10
2018-07-24T15:43:39.318Z,35.00
2018-07-24T15:46:08.092Z,35.60
2018-07-24T15:48:36.873Z,35.10
2018-07-24T15:51:05.712Z,34.90
2018-07-24T15:53:34.589Z,34.10
2018-07-24T15:56:03.543Z,33.30
2018-07-24T15:58:32.357Z,31.70
2018-07-24T16:01:01.196Z,30.80
2018-07-24T16:03:30.071Z,29.30
2018-07-24T16:05:58.987Z,29.00
2018-07-24T16:08:27.794Z,28.70
2018-07-24T16:10:56.620Z,28.40
2018-07-24T16:13:25.400Z,28.00
2018-07-24T16:15:54.304Z,27.80
2018-07-24T16:18:23.069Z,27.50
2018-07-24T16:20:51.851Z,27.10
2018-07-24T16:23:20.702Z,26.90
2018-07-24T16:25:49.534Z,26.70
2018-07-24T16:28:18.391Z,26.60
2018-07-24T16:30:47.282Z,26.40
2018-07-24T16:33:16.115Z,26.30
2018-07-24T16:35:45.004Z,26.20
2018-07-24T16:38:13.768Z,26.00
2018-07-24T16:40:42.707Z,25.80
2018-07-24T16:43:11.545Z,25.60
2018-07-24T16:45:40.383Z,25.60
2018-07-24T16:48:09.217Z,25.30
2018-07-24T16:50:38.055Z,25.40
2018-07-24T16:53:06.893Z,25.20
2018-07-24T16:55:36.592Z,25.30
2018-07-24T16:58:05.521Z,24.90
2018-07-24T17:00:34.371Z,25.00
2018-07-24T17:03:03.263Z,24.90
2018-07-24T17:05:32.095Z,25.00
2018-07-24T17:08:00.932Z,24.70
2018-07-24T17:10:29.755Z,24.80
2018-07-24T17:12:58.521Z,24.70
2018-07-24T17:15:27.352Z,24.70
2018-07-24T17:17:56.199Z,24.70
2018-07-24T17:20:25.031Z,24.70
2018-07-24T17:22:53.908Z,24.60
2018-07-24T17:25:22.784Z,24.50
2018-07-24T17:27:51.680Z,24.40
2018-07-24T17:32:48.843Z,24.40
2018-07-24T17:35:17.706Z,24.10
2018-07-24T17:37:46.745Z,24.20
2018-07-24T17:40:15.575Z,24.00
2018-07-24T17:42:44.425Z,23.80
2018-07-24T17:45:13.336Z,23.80
2018-07-24T17:47:42.161Z,23.70
2018-07-24T17:50:11.033Z,23.40
2018-07-24T17:52:39.804Z,23.40
2018-07-24T17:55:09.042Z,23.30
2018-07-24T17:57:37.821Z,23.30
2018-07-24T18:00:06.676Z,22.90
2018-07-24T18:02:35.576Z,23.10
2018-07-24T18:05:04.813Z,22.90
2018-07-24T18:07:33.636Z,22.90
2018-07-24T18:10:02.555Z,22.90
2018-07-24T18:12:31.328Z,22.90
2018-07-24T18:15:00.185Z,22.90
2018-07-24T18:17:29.008Z,22.90
2018-07-24T18:19:57.816Z,22.80
2018-07-24T18:22:26.713Z,22.80
2018-07-24T18:24:55.484Z,22.80
2018-07-24T18:27:24.311Z,22.70
2018-07-24T18:29:53.115Z,22.70
2018-07-24T18:32:21.931Z,22.60
2018-07-24T18:34:50.808Z,22.50
2018-07-24T18:37:19.671Z,22.50
2018-07-24T18:39:48.478Z,22.50
2018-07-24T18:42:17.320Z,22.40
2018-07-24T18:44:46.101Z,22.40
2018-07-24T18:47:14.950Z,22.30
2018-07-24T18:49:43.756Z,22.20
2018-07-24T18:52:12.584Z,22.20
2018-07-24T18:54:41.504Z,22.10
2018-07-24T18:57:10.445Z,22.10
2018-07-24T18:59:39.225Z,22.00
2018-07-24T19:02:08.037Z,21.90
2018-07-24T19:04:36.847Z,21.90
2018-07-24T19:07:05.806Z,21.80
2018-07-24T19:09:34.740Z,21.80
2018-07-24T19:12:03.553Z,21.70
2018-07-24T19:14:32.371Z,21.60
2018-07-24T19:17:01.152Z,21.50
2018-07-24T19:19:30.021Z,21.40
2018-07-24T19:21:58.834Z,21.40
2018-07-24T19:24:27.642Z,21.30
2018-07-24T19:26:56.463Z,21.30
2018-07-24T19:29:25.274Z,21.20
2018-07-24T19:31:54.107Z,21.20
2018-07-24T19:34:22.922Z,21.10
2018-07-24T19:36:51.774Z,21.00
2018-07-24T19:39:20.589Z,21.00
2018-07-24T19:41:49.380Z,20.90
2018-07-24T19:44:18.171Z,20.80
2018-07-24T19:46:46.945Z,20.70
2018-07-24T19:49:15.765Z,20.70
2018-07-24T19:51:44.620Z,20.60
2018-07-24T19:54:13.641Z,20.50
2018-07-24T19:56:42.423Z,20.50
2018-07-24T19:59:11.163Z,20.40
2018-07-24T20:01:39.944Z,20.30
2018-07-24T20:04:08.795Z,20.20
2018-07-24T20:06:37.638Z,20.20
2018-07-24T20:09:10.243Z,20.10
2018-07-24T20:11:39.056Z,20.10
2018-07-24T20:14:08.048Z,20.00
2018-07-24T20:16:37.014Z,20.00
2018-07-24T20:19:06.033Z,19.90
2018-07-24T20:21:34.907Z,19.90
2018-07-24T20:24:03.692Z,19.80
2018-07-24T20:26:32.499Z,19.80
2018-07-24T20:29:01.371Z,19.70
2018-07-24T20:31:30.197Z,19.70
2018-07-24T20:33:58.964Z,19.60
2018-07-24T20:36:27.824Z,19.60
2018-07-24T20:38:56.570Z,19.60
2018-07-24T20:41:25.484Z,19.60
2018-07-24T20:43:54.395Z,19.50
2018-07-24T20:46:23.200Z,19.50
2018-07-24T20:48:51.999Z,19.50
2018-07-24T20:51:20.960Z,19.40
2018-07-24T20:53:49.752Z,19.20
2018-07-24T20:56:18.626Z,19.20
2018-07-24T20:58:47.447Z,19.20
2018-07-24T21:01:16.366Z,19.20
2018-07-24T21:03:45.195Z,19.20
2018-07-24T21:06:13.924Z,19.30
2018-07-24T21:08:42.674Z,19.20
2018-07-24T21:11:11.515Z,19.20
2018-07-24T21:13:40.376Z,19.20
2018-07-24T21:16:09.249Z,19.20
2018-07-24T21:18:38.150Z,19.20
2018-07-24T21:21:07.148Z,19.20
2018-07-24T21:23:35.964Z,19.20
2018-07-24T21:26:05.029Z,19.10
2018-07-24T21:28:33.874Z,19.10
2018-07-24T21:31:02.675Z,19.00
2018-07-24T21:33:31.434Z,18.90
2018-07-24T21:36:00.234Z,18.80
2018-07-24T21:38:29.103Z,18.80
2018-07-24T21:40:57.950Z,18.80
2018-07-24T21:43:26.727Z,18.80
2018-07-24T21:45:55.498Z,18.70
2018-07-24T21:48:24.393Z,18.80
2018-07-24T21:50:53.209Z,18.70
2018-07-24T21:53:22.021Z,18.70
2018-07-24T21:55:50.871Z,18.70
2018-07-24T21:58:19.817Z,18.70
2018-07-24T22:00:52.795Z,18.60
2018-07-24T22:03:22.266Z,18.50
2018-07-24T22:05:51.107Z,18.40
2018-07-24T22:08:20.004Z,18.30
2018-07-24T22:10:48.821Z,18.30
2018-07-24T22:13:17.671Z,18.30
2018-07-24T22:15:46.522Z,18.10
2018-07-24T22:18:15.331Z,18.10
2018-07-24T22:20:44.187Z,18.10
2018-07-24T22:23:12.991Z,18.20
2018-07-24T22:25:41.787Z,18.20
2018-07-24T22:28:10.607Z,18.20
2018-07-24T22:30:39.519Z,18.20
2018-07-24T22:33:08.345Z,18.10
2018-07-24T22:35:37.106Z,18.20
2018-07-24T22:38:06.004Z,18.10
2018-07-24T22:40:34.855Z,18.10
2018-07-24T22:43:03.747Z,18.00
2018-07-24T22:45:32.567Z,18.10
2018-07-24T22:48:01.367Z,18.00
2018-07-24T22:50:30.233Z,18.00
2018-07-24T22:52:59.113Z,17.90
2018-07-24T22:55:27.915Z,17.90
2018-07-24T22:57:56.727Z,17.90
2018-07-24T23:00:25.503Z,17.90
2018-07-24T23:02:54.257Z,18.00
2018-07-24T23:05:23.191Z,17.90
2018-07-24T23:07:51.926Z,17.90
2018-07-24T23:10:20.814Z,17.90
2018-07-24T23:12:49.643Z,17.90
2018-07-24T23:15:18.447Z,17.90
2018-07-24T23:17:47.270Z,17.80
2018-07-24T23:20:16.029Z,17.80
2018-07-24T23:22:44.812Z,17.80
2018-07-24T23:25:13.669Z,17.80
2018-07-24T23:27:42.416Z,17.80
2018-07-24T23:30:11.227Z,17.80
2018-07-24T23:32:40.923Z,17.80
2018-07-24T23:35:09.719Z,17.80
2018-07-24T23:37:38.466Z,17.70
2018-07-24T23:40:07.279Z,17.70
2018-07-24T23:42:36.075Z,17.70
2018-07-24T23:45:04.927Z,17.70
2018-07-24T23:47:33.769Z,17.70
2018-07-24T23:50:02.554Z,17.60
2018-07-24T23:52:31.423Z,17.60
2018-07-24T23:55:00.177Z,17.60
2018-07-24T23:57:28.963Z,17.60
2018-07-24T23:59:57.778Z,17.60
